createdAt,value
2018-08-11T00:00:35.384Z,19.73
2018-08-11T00:03:11.002Z,19.63
2018-08-11T00:05:42.342Z,19.75
2018-08-11T00:08:13.597Z,19.64
2018-08-11T00:10:44.555Z,19.70
2018-08-11T00:13:15.531Z,20.03
2018-08-11T00:15:46.512Z,19.73
2018-08-11T00:18:17.481Z,19.95
2018-08-11T00:20:48.483Z,19.67
2018-08-11T00:23:19.505Z,19.93
2018-08-11T00:25:50.602Z,19.58
2018-08-11T00:28:21.578Z,19.66
2018-08-11T00:30:52.545Z,19.45
2018-08-11T00:33:23.495Z,19.62
2018-08-11T00:35:54.517Z,19.39
2018-08-11T00:38:25.489Z,19.51
2018-08-11T00:40:56.493Z,19.23
2018-08-11T00:43:27.501Z,19.27
2018-08-11T00:45:58.489Z,19.04
2018-08-11T00:48:29.522Z,18.90
2018-08-11T00:51:00.488Z,18.82
2018-08-11T00:53:31.488Z,18.97
2018-08-11T00:56:02.522Z,18.85
2018-08-11T00:58:33.499Z,18.84
2018-08-11T01:01:04.500Z,18.67
2018-08-11T01:03:35.480Z,18.96
2018-08-11T01:06:06.503Z,18.63
2018-08-11T01:08:37.491Z,18.62
2018-08-11T01:11:08.545Z,18.65
2018-08-11T01:13:39.484Z,18.69
2018-08-11T01:16:10.490Z,18.62
2018-08-11T01:18:41.480Z,18.45
2018-08-11T01:21:12.481Z,18.46
2018-08-11T01:23:43.484Z,18.50
2018-08-11T01:26:14.490Z,18.48
2018-08-11T01:28:45.488Z,18.48
2018-08-11T01:31:16.471Z,18.69
2018-08-11T01:33:47.481Z,18.48
2018-08-11T01:36:18.493Z,18.61
2018-08-11T01:38:49.519Z,18.41
2018-08-11T01:41:20.492Z,18.44
2018-08-11T01:43:51.505Z,18.53
2018-08-11T01:46:22.476Z,18.44
2018-08-11T01:48:53.480Z,18.42
2018-08-11T01:51:24.516Z,18.52
2018-08-11T01:53:55.507Z,18.55
2018-08-11T01:56:26.723Z,18.48
2018-08-11T01:58:57.568Z,18.58
2018-08-11T02:01:28.463Z,18.66
2018-08-11T02:03:59.472Z,18.81
2018-08-11T02:06:30.461Z,18.75
2018-08-11T02:09:01.505Z,18.52
2018-08-11T02:11:32.487Z,18.31
2018-08-11T02:14:03.514Z,18.36
2018-08-11T02:16:34.509Z,18.32
2018-08-11T02:19:05.532Z,18.50
2018-08-11T02:21:36.529Z,18.56
2018-08-11T02:24:07.577Z,18.59
2018-08-11T02:26:38.492Z,18.85
2018-08-11T02:29:09.500Z,18.73
2018-08-11T02:31:40.525Z,18.80
2018-08-11T02:34:11.501Z,18.70
2018-08-11T02:36:42.564Z,18.60
2018-08-11T02:39:15.456Z,18.68
2018-08-11T02:41:46.487Z,18.79
2018-08-11T02:44:17.452Z,18.55
2018-08-11T02:46:48.485Z,18.71
2018-08-11T02:49:19.495Z,18.79
2018-08-11T02:51:50.473Z,18.68
2018-08-11T02:54:21.480Z,18.60
2018-08-11T02:56:52.505Z,18.67
2018-08-11T02:59:25.443Z,18.60
2018-08-11T03:01:56.500Z,18.56
2018-08-11T03:04:27.472Z,18.52
2018-08-11T03:06:58.434Z,18.64
2018-08-11T03:09:29.420Z,18.62
2018-08-11T03:12:00.490Z,18.54
2018-08-11T03:14:31.456Z,18.64
2018-08-11T03:17:02.508Z,18.58
2018-08-11T03:19:33.494Z,18.64
2018-08-11T03:24:50.429Z,18.53
2018-08-11T03:27:21.485Z,18.82
2018-08-11T03:29:52.491Z,18.63
2018-08-11T03:32:23.441Z,18.55
2018-08-11T03:34:54.534Z,18.61
2018-08-11T03:37:25.445Z,18.94
2018-08-11T03:39:56.483Z,18.73
2018-08-11T03:42:27.462Z,18.64
2018-08-11T03:44:58.444Z,18.56
2018-08-11T03:47:29.488Z,18.68
2018-08-11T03:50:00.848Z,18.72
2018-08-11T03:52:31.625Z,18.73
2018-08-11T03:55:02.505Z,18.85
2018-08-11T03:57:33.489Z,18.99
2018-08-11T04:00:06.018Z,18.71
2018-08-11T04:02:37.301Z,18.84
2018-08-11T04:05:08.380Z,18.86
2018-08-11T04:07:39.490Z,18.92
2018-08-11T04:10:10.480Z,19.03
2018-08-11T04:12:41.450Z,19.15
2018-08-11T04:15:12.477Z,18.69
2018-08-11T04:17:43.484Z,18.55
2018-08-11T04:20:14.776Z,18.57
2018-08-11T04:22:45.564Z,18.55
2018-08-11T04:25:16.500Z,18.66
2018-08-11T04:27:47.504Z,18.50
2018-08-11T04:30:18.468Z,18.52
2018-08-11T04:32:49.462Z,18.41
2018-08-11T04:35:20.472Z,18.51
2018-08-11T04:37:51.457Z,18.37
2018-08-11T04:40:22.572Z,18.54
2018-08-11T04:42:53.466Z,18.35
2018-08-11T04:45:24.461Z,18.47
2018-08-11T04:47:55.538Z,18.52
2018-08-11T04:50:26.498Z,18.37
2018-08-11T04:52:57.485Z,18.32
2018-08-11T04:55:28.749Z,18.53
2018-08-11T04:57:59.593Z,18.27
2018-08-11T05:00:30.493Z,18.14
2018-08-11T05:03:01.461Z,18.49
2018-08-11T05:05:32.439Z,18.23
2018-08-11T05:08:03.469Z,18.40
2018-08-11T05:10:34.448Z,18.32
2018-08-11T05:13:05.514Z,18.47
2018-08-11T05:15:36.468Z,18.48
2018-08-11T05:18:07.635Z,18.63
2018-08-11T05:20:38.480Z,18.57
2018-08-11T05:23:09.451Z,18.55
2018-08-11T05:25:40.469Z,18.62
2018-08-11T05:28:11.473Z,18.49
2018-08-11T05:30:42.484Z,18.63
2018-08-11T05:33:13.527Z,18.60
2018-08-11T05:35:44.490Z,18.69
2018-08-11T05:38:15.464Z,18.93
2018-08-11T05:40:46.485Z,19.04
2018-08-11T05:43:17.480Z,18.78
2018-08-11T05:45:48.489Z,18.87
2018-08-11T05:48:19.449Z,18.85
2018-08-11T05:50:50.492Z,18.59
2018-08-11T05:53:21.445Z,18.74
2018-08-11T05:55:52.494Z,18.84
2018-08-11T05:58:23.519Z,18.70
2018-08-11T06:00:54.504Z,18.71
2018-08-11T06:03:25.685Z,18.61
2018-08-11T06:05:56.540Z,18.63
2018-08-11T06:08:27.465Z,18.93
2018-08-11T06:10:58.494Z,18.91
2018-08-11T06:13:29.501Z,18.81
2018-08-11T06:16:00.524Z,18.88
2018-08-11T06:18:31.578Z,18.69
2018-08-11T06:21:02.565Z,18.88
2018-08-11T06:23:33.472Z,19.11
2018-08-11T06:26:04.565Z,19.15
2018-08-11T06:28:35.499Z,19.36
2018-08-11T06:31:06.521Z,19.03
2018-08-11T06:33:38.502Z,19.33
2018-08-11T06:36:09.670Z,19.12
2018-08-11T06:38:40.663Z,18.86
2018-08-11T06:41:11.534Z,18.53
2018-08-11T06:43:42.688Z,18.48
2018-08-11T06:46:13.550Z,18.48
2018-08-11T06:48:44.486Z,18.39
2018-08-11T06:51:15.510Z,18.15
2018-08-11T06:53:46.509Z,18.03
2018-08-11T06:56:17.556Z,18.17
2018-08-11T06:58:48.554Z,18.02
2018-08-11T07:01:19.550Z,18.05
2018-08-11T07:03:50.632Z,17.88
2018-08-11T07:06:21.969Z,18.38
2018-08-11T07:08:53.564Z,18.33
2018-08-11T07:11:25.454Z,18.51
2018-08-11T07:13:56.487Z,18.55
2018-08-11T07:16:27.473Z,18.63
2018-08-11T07:18:58.504Z,18.60
2018-08-11T07:21:29.506Z,19.04
2018-08-11T07:24:01.476Z,19.22
2018-08-11T07:26:32.678Z,19.40
2018-08-11T07:29:03.602Z,19.59
2018-08-11T07:31:34.605Z,19.45
2018-08-11T07:34:05.570Z,19.32
2018-08-11T07:36:36.609Z,19.20
2018-08-11T07:39:10.026Z,19.14
2018-08-11T07:41:41.377Z,19.48
2018-08-11T07:44:12.489Z,19.56
2018-08-11T07:46:43.495Z,19.51
2018-08-11T07:49:14.493Z,19.78
2018-08-11T07:51:45.497Z,19.93
2018-08-11T07:54:16.521Z,19.83
2018-08-11T07:56:47.485Z,19.86
2018-08-11T07:59:18.460Z,19.79
2018-08-11T08:01:49.489Z,20.06
2018-08-11T08:04:21.228Z,19.95
2018-08-11T08:06:52.368Z,20.08
2018-08-11T08:09:23.452Z,20.49
2018-08-11T08:11:54.480Z,20.54
2018-08-11T08:14:25.412Z,20.74
2018-08-11T08:16:56.453Z,20.67
2018-08-11T08:19:27.545Z,20.73
2018-08-11T08:21:58.525Z,20.87
2018-08-11T08:24:29.425Z,20.81
2018-08-11T08:27:00.573Z,20.83
2018-08-11T08:29:32.393Z,21.00
2018-08-11T08:32:03.533Z,21.29
2018-08-11T08:34:34.565Z,21.48
2018-08-11T08:37:06.284Z,21.64
2018-08-11T08:39:36.368Z,21.91
2018-08-11T08:42:07.505Z,22.25
2018-08-11T08:44:38.432Z,22.83
2018-08-11T08:47:10.345Z,23.02
2018-08-11T08:49:41.353Z,23.19
2018-08-11T08:52:12.386Z,23.75
2018-08-11T08:54:43.502Z,24.22
2018-08-11T08:57:14.607Z,24.03
2018-08-11T08:59:45.579Z,24.76
2018-08-11T09:02:16.602Z,23.90
2018-08-11T09:04:47.731Z,25.52
2018-08-11T09:07:18.577Z,24.71
2018-08-11T09:09:49.501Z,25.11
2018-08-11T09:12:20.525Z,26.04
2018-08-11T09:14:51.518Z,26.21
2018-08-11T09:17:22.559Z,26.04
2018-08-11T09:19:54.035Z,26.40
2018-08-11T09:22:25.369Z,25.70
2018-08-11T09:24:56.442Z,26.92
2018-08-11T09:27:27.569Z,26.03
2018-08-11T09:29:58.519Z,25.84
2018-08-11T09:32:29.683Z,26.31
2018-08-11T09:35:00.596Z,26.25
2018-08-11T09:37:31.557Z,26.58
2018-08-11T09:40:02.489Z,26.07
2018-08-11T09:42:33.533Z,27.45
2018-08-11T09:45:04.493Z,26.75
2018-08-11T09:47:35.385Z,27.42
2018-08-11T09:50:06.515Z,27.44
2018-08-11T09:52:37.552Z,27.32
2018-08-11T09:55:08.563Z,28.68
2018-08-11T09:57:39.532Z,27.01
2018-08-11T10:00:10.804Z,25.85
2018-08-11T10:02:41.593Z,26.88
2018-08-11T10:05:12.565Z,27.25
2018-08-11T10:07:43.480Z,27.11
2018-08-11T10:10:14.457Z,27.00
2018-08-11T10:12:45.473Z,26.23
2018-08-11T10:15:16.634Z,26.36
2018-08-11T10:17:47.500Z,26.32
2018-08-11T10:20:18.500Z,25.75
2018-08-11T10:22:49.517Z,25.59
2018-08-11T10:25:20.527Z,25.81
2018-08-11T10:27:51.555Z,25.43
2018-08-11T10:30:22.469Z,27.01
2018-08-11T10:32:54.839Z,25.58
2018-08-11T10:35:25.629Z,24.71
2018-08-11T10:37:56.658Z,24.51
2018-08-11T10:40:27.527Z,25.09
2018-08-11T10:42:58.473Z,26.30
2018-08-11T10:45:29.497Z,26.46
2018-08-11T10:48:00.461Z,25.85
2018-08-11T10:50:31.485Z,25.87
2018-08-11T10:53:02.465Z,27.18
2018-08-11T10:58:17.564Z,27.14
2018-08-11T11:00:48.517Z,25.95
2018-08-11T11:03:20.292Z,25.50
2018-08-11T11:05:51.513Z,25.49
2018-08-11T11:08:22.622Z,27.43
2018-08-11T11:10:53.598Z,27.01
2018-08-11T11:13:24.489Z,26.47
2018-08-11T11:15:55.473Z,25.27
2018-08-11T11:18:26.490Z,25.21
2018-08-11T11:20:57.687Z,25.46
2018-08-11T11:23:28.511Z,26.76
2018-08-11T11:25:59.497Z,27.05
2018-08-11T11:28:30.529Z,27.10
2018-08-11T11:31:01.494Z,27.43
2018-08-11T11:33:32.540Z,28.55
2018-08-11T11:36:03.483Z,28.80
2018-08-11T11:38:34.513Z,28.52
2018-08-11T11:41:05.504Z,26.94
2018-08-11T11:43:36.497Z,26.41
2018-08-11T11:46:07.589Z,28.47
2018-08-11T11:48:38.558Z,27.63
2018-08-11T11:51:09.577Z,28.45
2018-08-11T11:53:40.521Z,27.77
2018-08-11T11:56:11.485Z,28.71
2018-08-11T11:58:42.526Z,28.83
2018-08-11T12:01:13.495Z,28.41
2018-08-11T12:03:44.492Z,29.48
2018-08-11T12:06:15.529Z,27.94
2018-08-11T12:08:46.525Z,27.83
2018-08-11T12:11:17.513Z,26.97
2018-08-11T12:13:48.475Z,28.22
2018-08-11T12:16:19.496Z,26.82
2018-08-11T12:18:50.498Z,25.92
2018-08-11T12:21:21.492Z,28.27
2018-08-11T12:23:52.530Z,26.53
2018-08-11T12:26:23.509Z,26.80
2018-08-11T12:28:54.502Z,28.27
2018-08-11T12:31:25.502Z,27.14
2018-08-11T12:33:56.757Z,27.19
2018-08-11T12:36:27.634Z,28.64
2018-08-11T12:38:58.554Z,29.53
2018-08-11T12:41:29.500Z,28.31
2018-08-11T12:44:00.518Z,29.13
2018-08-11T12:46:31.509Z,29.56
2018-08-11T12:49:02.677Z,30.50
2018-08-11T12:51:33.557Z,30.07
2018-08-11T12:54:04.564Z,31.08
2018-08-11T12:56:35.505Z,30.43
2018-08-11T12:59:06.736Z,30.13
2018-08-11T13:01:37.619Z,28.17
2018-08-11T13:04:09.175Z,27.29
2018-08-11T13:06:40.390Z,27.66
2018-08-11T13:09:12.326Z,28.44
2018-08-11T13:11:43.397Z,29.21
2018-08-11T13:14:14.533Z,28.21
2018-08-11T13:16:45.506Z,26.94
2018-08-11T13:19:16.517Z,26.96
2018-08-11T13:21:47.501Z,28.37
2018-08-11T13:24:18.521Z,27.95
2018-08-11T13:26:49.500Z,28.44
2018-08-11T13:29:20.558Z,29.02
2018-08-11T13:31:51.510Z,28.81
2018-08-11T13:34:22.525Z,29.26
2018-08-11T13:36:53.529Z,29.81
2018-08-11T13:39:24.509Z,29.21
2018-08-11T13:41:55.577Z,29.06
2018-08-11T13:44:26.499Z,28.72
2018-08-11T13:46:57.525Z,28.54
2018-08-11T13:49:28.517Z,29.41
2018-08-11T13:51:59.519Z,29.86
2018-08-11T13:54:30.529Z,29.78
2018-08-11T13:57:01.510Z,28.37
2018-08-11T13:59:32.541Z,29.04
2018-08-11T14:02:03.585Z,29.14
2018-08-11T14:04:34.514Z,29.05
2018-08-11T14:07:05.773Z,28.92
2018-08-11T14:09:36.586Z,28.49
2018-08-11T14:12:07.493Z,28.25
2018-08-11T14:14:38.489Z,27.91
2018-08-11T14:17:10.376Z,28.72
2018-08-11T14:19:41.360Z,27.73
2018-08-11T14:22:12.399Z,27.19
2018-08-11T14:24:43.533Z,27.16
2018-08-11T14:27:14.540Z,28.31
2018-08-11T14:29:45.546Z,27.75
2018-08-11T14:32:16.508Z,28.31
2018-08-11T14:34:48.297Z,28.44
2018-08-11T14:37:19.404Z,28.12
2018-08-11T14:39:50.496Z,28.87
2018-08-11T14:42:21.475Z,28.60
2018-08-11T14:44:52.673Z,29.64
2018-08-11T14:47:23.533Z,28.04
2018-08-11T14:49:54.520Z,27.31
2018-08-11T14:52:25.490Z,28.28
2018-08-11T14:54:56.501Z,28.63
2018-08-11T14:57:27.512Z,28.56
2018-08-11T14:59:58.504Z,29.32
2018-08-11T15:02:29.464Z,28.80
2018-08-11T15:05:00.499Z,29.65
2018-08-11T15:07:31.449Z,27.80
2018-08-11T15:10:02.517Z,28.25
2018-08-11T15:12:33.468Z,28.37
2018-08-11T15:15:05.389Z,27.89
2018-08-11T15:17:36.492Z,28.09
2018-08-11T15:20:08.750Z,27.91
2018-08-11T15:22:40.398Z,27.43
2018-08-11T15:25:11.473Z,27.57
2018-08-11T15:27:42.474Z,27.82
2018-08-11T15:30:13.633Z,27.71
2018-08-11T15:32:44.506Z,27.73
2018-08-11T15:35:15.493Z,27.04
2018-08-11T15:37:46.459Z,27.53
2018-08-11T15:40:17.492Z,28.07
2018-08-11T15:42:48.485Z,27.29
2018-08-11T15:45:19.629Z,26.87
2018-08-11T15:47:50.468Z,26.66
2018-08-11T15:50:21.622Z,26.60
2018-08-11T15:52:52.464Z,27.22
2018-08-11T15:55:23.505Z,26.71
2018-08-11T15:57:54.505Z,26.53
2018-08-11T16:00:25.494Z,26.81
2018-08-11T16:02:56.797Z,26.55
2018-08-11T16:05:27.552Z,26.21
2018-08-11T16:07:58.488Z,26.07
2018-08-11T16:10:29.484Z,26.09
2018-08-11T16:13:00.500Z,25.95
2018-08-11T16:15:31.606Z,26.01
2018-08-11T16:18:02.538Z,26.28
2018-08-11T16:20:33.493Z,26.08
2018-08-11T16:23:04.694Z,26.09
2018-08-11T16:25:35.609Z,25.98
2018-08-11T16:28:07.347Z,25.82
2018-08-11T16:30:38.394Z,25.56
2018-08-11T16:33:09.507Z,25.55
2018-08-11T16:35:40.557Z,25.44
2018-08-11T16:38:11.489Z,25.46
2018-08-11T16:40:42.526Z,25.52
2018-08-11T16:43:13.517Z,25.71
2018-08-11T16:45:44.566Z,25.31
2018-08-11T16:48:15.550Z,25.35
2018-08-11T16:50:46.512Z,25.49
2018-08-11T16:53:17.539Z,25.16
2018-08-11T16:55:48.494Z,25.30
2018-08-11T16:58:19.486Z,25.18
2018-08-11T17:00:50.555Z,25.43
2018-08-11T17:03:21.493Z,25.31
2018-08-11T17:05:52.586Z,25.39
2018-08-11T17:08:23.487Z,25.04
2018-08-11T17:10:54.484Z,24.99
2018-08-11T17:13:25.469Z,24.94
2018-08-11T17:15:56.489Z,24.76
2018-08-11T17:18:27.496Z,24.78
2018-08-11T17:23:42.506Z,24.71
2018-08-11T17:26:13.623Z,24.79
2018-08-11T17:28:44.562Z,24.51
2018-08-11T17:31:15.537Z,24.62
2018-08-11T17:33:46.535Z,24.45
2018-08-11T17:36:17.530Z,24.52
2018-08-11T17:41:54.500Z,24.46
2018-08-11T17:44:25.509Z,24.53
2018-08-11T17:46:56.538Z,24.46
2018-08-11T17:49:27.505Z,24.43
2018-08-11T17:51:58.576Z,24.29
2018-08-11T17:54:29.490Z,24.42
2018-08-11T17:57:00.515Z,24.26
2018-08-11T17:59:31.481Z,24.18
2018-08-11T18:02:02.510Z,24.32
2018-08-11T18:04:33.609Z,24.22
2018-08-11T18:07:04.606Z,24.18
2018-08-11T18:09:35.522Z,24.22
2018-08-11T18:12:06.602Z,24.29
2018-08-11T18:14:37.678Z,24.18
2018-08-11T18:17:26.479Z,24.07
2018-08-11T18:19:57.656Z,24.04
2018-08-11T18:22:29.368Z,24.10
2018-08-11T18:25:00.712Z,23.89
2018-08-11T18:27:31.675Z,24.00
2018-08-11T18:30:02.554Z,24.05
2018-08-11T18:32:33.598Z,23.70
2018-08-11T18:35:04.697Z,23.72
2018-08-11T18:39:27.498Z,23.70
2018-08-11T18:41:58.493Z,23.77
2018-08-11T18:44:29.517Z,23.60
2018-08-11T18:47:00.532Z,23.66
2018-08-11T18:49:32.604Z,23.56
2018-08-11T18:52:03.808Z,23.40
2018-08-11T18:54:34.637Z,23.48
2018-08-11T18:57:06.358Z,23.39
2018-08-11T18:59:37.569Z,23.37
2018-08-11T19:02:08.562Z,23.28
2018-08-11T19:04:39.488Z,23.26
2018-08-11T19:07:10.501Z,23.19
2018-08-11T19:09:41.490Z,23.17
2018-08-11T19:12:12.529Z,23.04
2018-08-11T19:14:43.494Z,22.99
2018-08-11T19:17:14.610Z,22.93
2018-08-11T19:19:45.686Z,22.92
2018-08-11T19:22:16.525Z,22.92
2018-08-11T19:24:47.509Z,22.91
2018-08-11T19:27:18.562Z,22.85
2018-08-11T19:29:49.493Z,22.73
2018-08-11T19:32:20.543Z,22.72
2018-08-11T19:34:51.501Z,22.72
2018-08-11T19:37:22.517Z,22.61
2018-08-11T19:39:53.522Z,22.56
2018-08-11T19:42:24.527Z,22.59
2018-08-11T19:44:55.505Z,22.54
2018-08-11T19:47:26.650Z,22.45
2018-08-11T19:49:57.542Z,22.43
2018-08-11T19:52:28.485Z,22.55
2018-08-11T19:54:59.501Z,22.38
2018-08-11T19:57:30.474Z,22.38
2018-08-11T20:00:01.513Z,22.33
2018-08-11T20:02:32.514Z,22.33
2018-08-11T20:05:03.524Z,22.25
2018-08-11T20:07:34.491Z,22.28
2018-08-11T20:10:06.616Z,22.15
2018-08-11T20:12:38.449Z,22.26
2018-08-11T20:15:11.362Z,22.11
2018-08-11T20:17:42.397Z,21.98
2018-08-11T20:20:13.486Z,22.04
2018-08-11T20:22:44.488Z,21.82
2018-08-11T20:25:15.591Z,21.92
2018-08-11T20:27:46.525Z,21.93
2018-08-11T20:30:17.506Z,21.77
2018-08-11T20:32:48.504Z,21.82
2018-08-11T20:35:20.534Z,21.69
2018-08-11T20:37:51.508Z,21.51
2018-08-11T20:40:22.508Z,21.40
2018-08-11T20:42:53.514Z,21.28
2018-08-11T20:45:24.593Z,21.18
2018-08-11T20:47:55.560Z,21.28
2018-08-11T20:50:26.521Z,21.16
2018-08-11T20:52:57.524Z,21.10
2018-08-11T20:55:28.497Z,21.06
2018-08-11T20:57:59.495Z,20.91
2018-08-11T21:00:30.568Z,20.96
2018-08-11T21:03:01.518Z,20.86
2018-08-11T21:05:32.535Z,20.70
2018-08-11T21:08:03.469Z,20.74
2018-08-11T21:10:34.544Z,20.64
2018-08-11T21:13:05.616Z,20.68
2018-08-11T21:15:36.519Z,20.68
2018-08-11T21:18:07.498Z,20.48
2018-08-11T21:20:38.515Z,20.59
2018-08-11T21:23:09.494Z,20.55
2018-08-11T21:25:40.513Z,20.56
2018-08-11T21:28:11.475Z,20.57
2018-08-11T21:30:42.518Z,20.48
2018-08-11T21:33:13.559Z,20.51
2018-08-11T21:35:44.487Z,20.50
2018-08-11T21:38:15.485Z,20.42
2018-08-11T21:40:46.543Z,20.40
2018-08-11T21:43:17.482Z,20.22
2018-08-11T21:45:48.496Z,20.14
2018-08-11T21:48:19.508Z,20.13
2018-08-11T21:50:50.487Z,20.14
2018-08-11T21:53:21.528Z,20.08
2018-08-11T21:55:52.472Z,20.09
2018-08-11T21:58:23.513Z,20.05
2018-08-11T22:00:57.297Z,20.11
2018-08-11T22:03:28.403Z,20.08
2018-08-11T22:05:59.501Z,19.88
2018-08-11T22:08:30.497Z,19.98
2018-08-11T22:11:01.482Z,19.89
2018-08-11T22:13:32.478Z,19.77
2018-08-11T22:16:05.387Z,19.78
2018-08-11T22:18:37.022Z,19.64
2018-08-11T22:21:08.355Z,19.51
2018-08-11T22:23:39.480Z,19.50
2018-08-11T22:26:10.485Z,19.55
2018-08-11T22:28:41.461Z,19.57
2018-08-11T22:31:12.486Z,19.52
2018-08-11T22:33:43.473Z,19.49
2018-08-11T22:36:14.509Z,19.44
2018-08-11T22:38:45.533Z,19.36
2018-08-11T22:41:16.500Z,19.34
2018-08-11T22:43:47.481Z,19.35
2018-08-11T22:46:18.504Z,19.32
2018-08-11T22:48:49.467Z,19.29
2018-08-11T22:51:20.564Z,19.28
2018-08-11T22:53:51.455Z,19.18
2018-08-11T22:56:22.690Z,19.24
2018-08-11T22:58:53.542Z,19.14
2018-08-11T23:01:24.474Z,19.15
2018-08-11T23:03:55.476Z,19.12
2018-08-11T23:06:26.533Z,19.03
2018-08-11T23:08:57.472Z,19.05
2018-08-11T23:11:28.500Z,18.97
2018-08-11T23:13:59.478Z,18.98
2018-08-11T23:16:30.468Z,18.98
2018-08-11T23:19:01.482Z,19.04
2018-08-11T23:21:32.409Z,18.99
2018-08-11T23:24:03.448Z,18.81
2018-08-11T23:26:34.428Z,18.75
2018-08-11T23:31:50.360Z,18.54
2018-08-11T23:34:21.338Z,18.62
2018-08-11T23:36:52.381Z,18.63
2018-08-11T23:39:23.481Z,18.53
2018-08-11T23:41:54.556Z,18.50
2018-08-11T23:44:25.509Z,18.48
2018-08-11T23:46:56.485Z,18.34
2018-08-11T23:49:27.497Z,18.26
2018-08-11T23:51:58.498Z,17.99
2018-08-11T23:54:29.502Z,17.78
2018-08-11T23:57:00.509Z,17.98
2018-08-11T23:59:31.736Z,17.98
